Latest Weather Observations for Padthaway

IDS60801

Issued at 10:31 am CST Wednesday 1 July 2015 (issued every 30 minutes, with the page automatically refreshed every 10 minutes)

About weather observations | Map of weather stations | Latest weather observations for SA | Other Formats
Station Details ID: 026100 Name: PADTHAWAY SOUTH Lat: -36.65 Lon: 140.52 Height: 37.0 m
Data from the previous 72 hours. | See also: Recent months at Padthaway
Date/Time
CST
Temp
°C
App
Temp
°C
Dew
Point
Rel
Hum
%
Delta-T
°C
Wind Press
QNH
hPa
Press
MSL
hPa
Rain
since 9 am
mm
Dir
 
Spd
km/h
Gust
km/h
Spd
kts
Gust
kts
01/10:30am 11.7 7.7 8.9 83 1.4 NW 20 28 11 15 - - 0.0
01/10:00am 10.4 6.3 7.8 84 1.3 NNW 19 26 10 14 - - 0.0
01/09:30am 9.6 5.8 7.4 86 1.0 NNW 17 24 9 13 - - 0.0
01/09:00am 8.6 5.9 7.5 93 0.5 NNW 11 17 6 9 - - 0.0
01/08:30am 7.2 3.9 6.5 95 0.3 N 13 17 7 9 - - 0.0
01/08:00am 7.1 3.9 7.0 99 0.0 N 13 19 7 10 - - 0.0
01/07:30am 5.8 2.7 5.7 99 0.0 N 11 13 6 7 - - 0.0
01/07:00am 5.5 2.4 5.4 99 0.0 N 11 11 6 6 - - 0.0
01/06:30am 6.1 3.1 6.0 99 0.0 N 11 13 6 7 - - 0.0
01/06:00am 4.2 1.2 4.1 99 0.0 N 9 11 5 6 - - 0.0
01/05:30am 4.2 1.2 4.1 99 0.0 N 9 11 5 6 - - 0.0
01/05:00am 4.9 2.4 4.8 99 0.0 N 7 9 4 5 - - 0.0
01/04:30am 5.3 2.5 5.2 99 0.0 N 9 13 5 7 - - 0.0
01/04:00am 3.7 0.6 3.4 98 0.1 NNW 9 11 5 6 - - 0.0
01/03:30am 2.4 -1.0 2.1 98 0.1 NNW 9 9 5 5 - - 0.0
01/03:00am 1.8 -0.4 1.2 96 0.2 NNE 2 7 1 4 - - 0.0
01/02:30am 2.8 0.4 2.4 97 0.2 NNE 4 9 2 5 - - 0.0
01/02:00am 3.3 0.6 2.9 97 0.2 NE 6 7 3 4 - - 0.0
01/01:30am 3.4 0.5 2.7 95 0.3 NNE 7 9 4 5 - - 0.0
01/01:00am 4.0 1.4 3.3 95 0.3 N 6 7 3 4 - - 0.0
01/12:30am 4.9 2.4 4.5 97 0.2 NNE 7 11 4 6 - - 0.0
01/12:00am 4.7 3.4 4.3 97 0.2 CALM 0 0 0 0 - - 0.0
 
Date/Time
CST
Temp
°C
App
Temp
°C
Dew
Point
Rel
Hum
%
Delta-T
°C
Wind Press
QNH
hPa
Press
MSL
hPa
Rain
since 9 am
mm
Dir
 
Spd
km/h
Gust
km/h
Spd
kts
Gust
kts
30/11:30pm 4.2 2.8 3.5 95 0.3 CALM 0 0 0 0 - - 0.0
30/11:00pm 3.9 1.3 3.0 94 0.4 NE 6 7 3 4 - - 0.0
30/10:30pm 4.7 2.0 3.8 94 0.4 NNE 7 9 4 5 - - 0.0
30/10:00pm 5.1 2.4 3.9 92 0.5 N 7 9 4 5 - - 0.0
30/09:30pm 6.1 4.5 4.7 91 0.6 NNW 2 7 1 4 - - 0.0
30/09:00pm 7.4 6.4 5.5 88 0.8 CALM 0 0 0 0 - - 0.0
30/08:30pm 8.9 7.0 6.9 87 0.9 NNW 6 9 3 5 - - 0.0
30/08:00pm 9.3 8.7 7.3 87 0.9 CALM 0 0 0 0 - - 0.0
30/07:30pm 9.4 8.8 7.2 86 1.0 CALM 0 0 0 0 - - 0.0
30/07:00pm 9.4 8.7 6.8 84 1.2 CALM 0 0 0 0 - - 0.0
30/06:30pm 10.0 9.4 7.3 83 1.3 CALM 0 0 0 0 - - 0.0
30/06:00pm 10.1 9.5 7.2 82 1.4 CALM 0 0 0 0 - - 0.0
30/05:30pm 10.4 8.4 7.1 80 1.6 NNW 7 9 4 5 - - 0.0
30/05:00pm 10.9 8.9 7.0 77 1.9 NW 7 9 4 5 - - 0.0
30/04:30pm 12.0 9.8 7.7 75 2.1 WNW 9 11 5 6 - - 0.0
30/04:00pm 12.1 9.9 7.8 75 2.1 NW 9 11 5 6 - - 0.0
30/03:30pm 12.2 9.2 7.5 73 2.3 NW 13 17 7 9 - - 0.0
30/03:00pm 12.5 9.7 6.8 68 2.7 WNW 11 15 6 8 - - 0.0
30/02:30pm 12.5 9.8 7.2 70 2.6 W 11 15 6 8 - - 0.0
30/02:00pm 12.4 10.2 7.7 73 2.3 W 9 13 5 7 - - 0.0
30/01:30pm 12.8 10.6 7.9 72 2.4 W 9 15 5 8 - - 0.0
30/01:00pm 12.3 9.4 6.4 67 2.8 NW 11 15 6 8 - - 0.0
30/12:30pm 12.3 8.9 6.1 66 2.9 NNW 13 19 7 10 - - 0.0
30/12:00pm 12.1 8.4 6.4 68 2.7 NW 15 17 8 9 - - 0.0
30/11:30am 11.5 8.1 5.8 68 2.7 NW 13 20 7 11 - - 0.0
30/11:00am 11.0 7.7 6.2 72 2.2 NW 13 17 7 9 - - 0.0
30/10:30am 10.7 7.4 6.3 74 2.1 NW 13 17 7 9 - - 0.0
30/10:00am 10.0 7.5 6.5 79 1.6 NW 9 13 5 7 - - 0.0
30/09:30am 8.7 6.6 5.6 81 1.4 NW 6 9 3 5 - - 0.0
30/09:00am 6.7 5.7 5.8 94 0.4 CALM 0 0 0 0 - - 0.0
30/08:30am 5.8 4.8 5.5 98 0.1 CALM 0 0 0 0 - - 0.0
30/08:00am 4.6 3.3 4.3 98 0.1 CALM 0 0 0 0 - - 0.0
30/07:30am 3.5 2.0 3.1 97 0.2 CALM 0 6 0 3 - - 0.0
30/07:00am 2.4 0.7 1.7 95 0.3 CALM 0 0 0 0 - - 0.0
30/06:30am 2.1 0.3 1.1 93 0.4 CALM 0 0 0 0 - - 0.0
30/06:00am 3.2 1.6 2.3 94 0.4 CALM 0 0 0 0 - - 0.0
30/05:30am 4.4 1.9 3.5 94 0.4 NNE 6 6 3 3 - - 0.0
30/05:00am 4.7 3.3 3.8 94 0.4 CALM 0 0 0 0 - - 0.0
30/04:30am 5.1 3.9 4.4 95 0.3 CALM 0 0 0 0 - - 0.0
30/04:00am 4.7 3.3 3.8 94 0.4 CALM 0 0 0 0 - - 0.0
30/03:30am 5.0 3.3 3.8 92 0.5 NW 2 9 1 5 - - 0.0
30/03:00am 5.2 3.8 3.7 90 0.6 CALM 0 0 0 0 - - 0.0
30/02:30am 6.3 3.8 4.5 88 0.8 W 7 9 4 5 - - 0.0
30/02:00am 7.3 4.8 4.9 85 1.1 NW 7 13 4 7 - - 0.0
30/01:30am 7.5 4.7 5.0 84 1.1 ENE 9 13 5 7 - - 0.0
30/01:00am 7.4 5.9 5.0 85 1.1 NE 2 7 1 4 - - 0.0
30/12:30am 7.4 6.3 5.2 86 1.0 CALM 0 0 0 0 - - 0.0
30/12:00am 7.7 5.8 4.8 82 1.3 ENE 4 7 2 4 - - 0.0
 
Date/Time
CST
Temp
°C
App
Temp
°C
Dew
Point
Rel
Hum
%
Delta-T
°C
Wind Press
QNH
hPa
Press
MSL
hPa
Rain
since 9 am
mm
Dir
 
Spd
km/h
Gust
km/h
Spd
kts
Gust
kts
29/11:30pm 7.8 4.2 5.1 83 1.2 ENE 13 15 7 8 - - 0.0
29/11:00pm 6.9 4.0 4.9 87 0.9 E 9 13 5 7 - - 0.0
29/10:30pm 6.1 3.7 4.4 89 0.7 SE 6 7 3 4 - - 0.0
29/10:00pm 5.8 4.5 4.3 90 0.6 CALM 0 4 0 2 - - 0.0
29/09:30pm 5.6 3.2 4.1 90 0.6 E 6 11 3 6 - - 0.0
29/09:00pm 5.5 2.5 4.0 90 0.6 E 9 11 5 6 - - 0.0
29/08:30pm 5.8 3.7 4.1 89 0.7 SSE 4 11 2 6 - - 0.0
29/08:00pm 6.3 3.4 4.5 88 0.8 E 9 11 5 6 - - 0.0
29/07:30pm 6.6 4.1 4.6 87 0.9 ENE 7 11 4 6 - - 0.0
29/07:00pm 7.0 4.5 4.8 86 1.0 E 7 9 4 5 - - 0.0
29/06:30pm 6.4 3.8 4.1 85 1.0 E 7 9 4 5 - - 0.0
29/06:00pm 7.4 4.5 4.7 83 1.2 SE 9 9 5 5 - - 0.0
29/05:30pm 8.6 5.9 5.5 81 1.4 SE 9 11 5 6 - - 0.0
29/05:00pm 10.2 6.9 6.2 76 1.9 SE 13 17 7 9 - - 0.0
29/04:30pm 11.8 8.1 6.5 70 2.5 SSE 15 20 8 11 - - 0.0
29/04:00pm 12.2 9.0 6.7 69 2.6 S 13 17 7 9 - - 0.0
29/03:30pm 12.5 9.9 6.3 66 2.9 S 9 15 5 8 - - 0.0
29/03:00pm 13.6 10.7 6.7 63 3.3 S 11 17 6 9 - - 0.0
29/02:30pm 13.2 10.7 6.5 64 3.2 S 9 15 5 8 - - 0.0
29/02:00pm 13.5 11.3 6.1 61 3.5 SSW 7 13 4 7 - - 0.0
29/01:30pm 13.6 11.5 6.5 62 3.4 SW 7 13 4 7 - - 0.0
29/01:00pm 14.4 13.6 6.7 60 3.7 CALM 0 6 0 3 - - 0.0
29/12:30pm 13.2 11.0 6.1 62 3.4 SSE 7 13 4 7 - - 0.0
29/12:00pm 13.1 11.2 6.7 65 3.1 E 6 11 3 6 - - 0.0
29/11:30am 12.8 10.3 6.6 66 3.0 ENE 9 13 5 7 - - 0.0
29/11:00am 12.5 10.0 6.5 67 2.9 E 9 13 5 7 - - 0.0
29/10:30am 11.9 9.5 7.0 72 2.3 ESE 9 11 5 6 - - 0.0
29/10:00am 10.9 9.0 7.4 79 1.7 E 7 48 4 26 - - 0.0
29/09:30am 9.1 8.2 7.7 91 0.7 E 2 7 1 4 - - 0.0
29/09:00am 7.0 6.3 6.9 99 0.0 CALM 0 0 0 0 - - 0.0
29/08:30am 5.2 3.3 5.1 99 0.0 ENE 4 7 2 4 - - 0.0
29/08:00am 2.2 -0.6 2.1 99 0.0 ENE 6 7 3 4 - - 0.0
29/07:30am 2.4 -0.6 2.3 99 0.0 E 7 9 4 5 - - 0.0
29/07:00am 2.9 0.6 2.8 99 0.0 SSE 4 7 2 4 - - 0.0
29/06:30am 3.3 0.1 3.2 99 0.0 SSE 9 11 5 6 - - 0.0
29/06:00am 2.6 -0.3 2.5 99 0.0 SSE 7 9 4 5 - - 0.0
29/05:30am 3.1 -0.5 3.0 99 0.0 SE 11 11 6 6 - - 0.0
29/05:00am 3.1 0.3 3.0 99 0.0 SE 7 9 4 5 - - 0.0
29/04:30am 2.4 -1.0 2.1 98 0.1 SE 9 11 5 6 - - 0.0
29/04:00am 2.4 -1.0 2.1 98 0.1 SE 9 9 5 5 - - 0.0
29/03:30am 2.3 -0.7 2.0 98 0.1 SE 7 9 4 5 - - 0.0
29/03:00am 2.9 0.0 2.6 98 0.1 SE 7 9 4 5 - - 0.0
29/02:30am 2.6 0.6 2.3 98 0.1 SSE 2 9 1 5 - - 0.0
29/02:00am 2.5 0.8 2.1 97 0.2 CALM 0 0 0 0 - - 0.0
29/01:30am 2.3 0.6 1.7 96 0.2 CALM 0 0 0 0 - - 0.0
29/01:00am 3.5 2.0 3.1 97 0.2 CALM 0 0 0 0 - - 0.0
29/12:30am 3.7 2.2 3.1 96 0.2 CALM 0 0 0 0 - - 0.0
29/12:00am 4.1 2.7 3.5 96 0.2 CALM 0 0 0 0 - - 0.0
 
Date/Time
CST
Temp
°C
App
Temp
°C
Dew
Point
Rel
Hum
%
Delta-T
°C
Wind Press
QNH
hPa
Press
MSL
hPa
Rain
since 9 am
mm
Dir
 
Spd
km/h
Gust
km/h
Spd
kts
Gust
kts
28/11:30pm 4.3 2.9 3.7 96 0.2 CALM 0 0 0 0 - - 0.0
28/11:00pm 4.8 3.5 4.1 95 0.3 CALM 0 0 0 0 - - 0.0
28/10:30pm 5.7 4.6 5.0 95 0.3 CALM 0 0 0 0 - - 0.0
28/10:00pm 6.3 4.5 5.4 94 0.4 SSE 4 7 2 4 - - 0.0
28/09:30pm 7.6 5.7 6.7 94 0.4 E 6 6 3 3 - - 0.0
28/09:00pm 8.1 6.3 7.0 93 0.5 E 6 7 3 4 - - 0.0
28/08:30pm 9.3 8.8 7.7 90 0.8 CALM 0 7 0 4 - - 0.0
28/08:00pm 11.0 10.9 9.3 89 0.9 CALM 0 6 0 3 - - 0.0
28/07:30pm 11.5 11.5 9.8 89 0.9 CALM 0 6 0 3 - - 0.0
28/07:00pm 11.5 11.5 9.8 89 0.9 CALM 0 0 0 0 - - 0.0
28/06:30pm 11.7 11.3 9.8 88 1.0 WSW 2 7 1 4 - - 0.0
28/06:00pm 11.7 10.0 9.8 88 1.0 W 9 13 5 7 - - 0.0
28/05:30pm 12.2 10.5 9.9 86 1.2 W 9 11 5 6 - - 0.0
28/05:00pm 12.6 11.0 10.1 85 1.3 WNW 9 13 5 7 - - 0.0
28/04:30pm 13.0 11.0 10.2 83 1.4 W 11 15 6 8 - - 0.0
28/04:00pm 13.8 11.7 9.6 76 2.2 NW 11 15 6 8 - - 0.0
28/03:30pm 14.8 13.7 9.8 72 2.6 WSW 6 9 3 5 - - 0.0
28/03:00pm 14.8 13.4 9.6 71 2.7 SW 7 9 4 5 - - 0.0
28/02:30pm 14.5 13.3 9.7 73 2.5 WSW 6 9 3 5 - - 0.0
28/02:00pm 14.5 13.1 9.5 72 2.6 SW 7 11 4 6 - - 0.0
28/01:30pm 15.0 13.4 10.2 73 2.5 W 9 13 5 7 - - 0.0
28/01:00pm 14.6 13.3 10.0 74 2.4 WNW 7 11 4 6 - - 0.0
28/12:30pm 14.3 12.9 9.7 74 2.4 NW 7 15 4 8 - - 0.0
28/12:00pm 14.0 12.2 9.6 75 2.3 NW 9 13 5 7 - - 0.0
28/11:30am 13.6 11.7 8.9 73 2.4 NW 9 13 5 7 - - 0.0
28/11:00am 12.9 10.5 8.8 76 2.1 NW 11 15 6 8 - - 0.0

Other Formats:

Comma delimited format used in spreadsheet applications
http://www.bom.gov.au/fwo/IDS60801/IDS60801.95823.axf

JavaScript Object Notation format (JSON) in row-major order
http://www.bom.gov.au/fwo/IDS60801/IDS60801.95823.json